sensor_id;sensor_type;location;lat;lon;timestamp;P1;durP1;ratioP1;P2;durP2;ratioP2
7365;SDS011;3723;52.220;8.792;2024-03-25T00:00:09;9.53;;;1.50;;
7365;SDS011;3723;52.220;8.792;2024-03-25T00:02:37;7.90;;;1.40;;
7365;SDS011;3723;52.220;8.792;2024-03-25T00:05:03;10.03;;;1.43;;
7365;SDS011;3723;52.220;8.792;2024-03-25T00:07:30;11.20;;;2.20;;
7365;SDS011;3723;52.220;8.792;2024-03-25T00:09:58;11.03;;;1.57;;
7365;SDS011;3723;52.220;8.792;2024-03-25T00:12:25;9.57;;;1.73;;
7365;SDS011;3723;52.220;8.792;2024-03-25T00:14:51;9.53;;;1.93;;
7365;SDS011;3723;52.220;8.792;2024-03-25T00:17:17;8.10;;;1.20;;
7365;SDS011;3723;52.220;8.792;2024-03-25T00:19:44;14.17;;;2.13;;
7365;SDS011;3723;52.220;8.792;2024-03-25T00:22:15;12.80;;;2.00;;
7365;SDS011;3723;52.220;8.792;2024-03-25T00:24:41;10.40;;;1.97;;
7365;SDS011;3723;52.220;8.792;2024-03-25T00:27:09;11.03;;;2.07;;
7365;SDS011;3723;52.220;8.792;2024-03-25T00:29:35;11.03;;;1.80;;
7365;SDS011;3723;52.220;8.792;2024-03-25T00:32:02;8.47;;;1.40;;
7365;SDS011;3723;52.220;8.792;2024-03-25T00:34:29;9.40;;;1.43;;
7365;SDS011;3723;52.220;8.792;2024-03-25T00:36:55;11.93;;;2.90;;
7365;SDS011;3723;52.220;8.792;2024-03-25T00:39:21;16.20;;;2.07;;
7365;SDS011;3723;52.220;8.792;2024-03-25T00:41:48;10.47;;;2.83;;
7365;SDS011;3723;52.220;8.792;2024-03-25T00:44:16;18.30;;;4.33;;
7365;SDS011;3723;52.220;8.792;2024-03-25T00:46:42;10.37;;;2.23;;
7365;SDS011;3723;52.220;8.792;2024-03-25T00:49:08;12.50;;;2.30;;
7365;SDS011;3723;52.220;8.792;2024-03-25T00:51:36;8.30;;;1.40;;
7365;SDS011;3723;52.220;8.792;2024-03-25T00:54:02;15.00;;;2.23;;
7365;SDS011;3723;52.220;8.792;2024-03-25T00:56:29;10.53;;;1.80;;
7365;SDS011;3723;52.220;8.792;2024-03-25T00:58:55;10.93;;;1.97;;
7365;SDS011;3723;52.220;8.792;2024-03-25T01:01:24;9.90;;;2.03;;
7365;SDS011;3723;52.220;8.792;2024-03-25T01:03:50;15.80;;;3.47;;
7365;SDS011;3723;52.220;8.792;2024-03-25T01:06:17;14.50;;;2.60;;
7365;SDS011;3723;52.220;8.792;2024-03-25T01:08:43;14.37;;;2.63;;
7365;SDS011;3723;52.220;8.792;2024-03-25T01:11:10;22.97;;;2.73;;
7365;SDS011;3723;52.220;8.792;2024-03-25T01:13:36;12.17;;;2.07;;
7365;SDS011;3723;52.220;8.792;2024-03-25T01:16:03;16.83;;;2.93;;
7365;SDS011;3723;52.220;8.792;2024-03-25T01:18:33;13.60;;;2.70;;
7365;SDS011;3723;52.220;8.792;2024-03-25T01:21:00;9.60;;;2.20;;
7365;SDS011;3723;52.220;8.792;2024-03-25T01:23:26;13.43;;;3.43;;
7365;SDS011;3723;52.220;8.792;2024-03-25T01:25:53;12.50;;;2.10;;
7365;SDS011;3723;52.220;8.792;2024-03-25T01:28:19;10.60;;;2.70;;
7365;SDS011;3723;52.220;8.792;2024-03-25T01:30:46;10.30;;;2.07;;
7365;SDS011;3723;52.220;8.792;2024-03-25T01:33:11;15.13;;;2.10;;
7365;SDS011;3723;52.220;8.792;2024-03-25T01:35:39;11.90;;;2.83;;
7365;SDS011;3723;52.220;8.792;2024-03-25T01:38:05;12.60;;;3.20;;
7365;SDS011;3723;52.220;8.792;2024-03-25T01:40:32;11.00;;;1.77;;
7365;SDS011;3723;52.220;8.792;2024-03-25T01:42:59;17.10;;;4.90;;
7365;SDS011;3723;52.220;8.792;2024-03-25T01:45:27;14.70;;;3.47;;
7365;SDS011;3723;52.220;8.792;2024-03-25T01:47:55;9.30;;;1.80;;
7365;SDS011;3723;52.220;8.792;2024-03-25T01:50:23;19.60;;;3.03;;
7365;SDS011;3723;52.220;8.792;2024-03-25T01:52:52;14.27;;;2.60;;
7365;SDS011;3723;52.220;8.792;2024-03-25T01:55:20;10.83;;;3.73;;
7365;SDS011;3723;52.220;8.792;2024-03-25T01:57:49;18.53;;;3.87;;
7365;SDS011;3723;52.220;8.792;2024-03-25T02:00:17;13.33;;;2.90;;
7365;SDS011;3723;52.220;8.792;2024-03-25T02:02:43;15.23;;;2.90;;
7365;SDS011;3723;52.220;8.792;2024-03-25T02:05:12;14.17;;;2.73;;
7365;SDS011;3723;52.220;8.792;2024-03-25T02:07:40;15.97;;;2.07;;
7365;SDS011;3723;52.220;8.792;2024-03-25T02:10:09;14.03;;;2.57;;
7365;SDS011;3723;52.220;8.792;2024-03-25T02:12:36;13.67;;;2.20;;
7365;SDS011;3723;52.220;8.792;2024-03-25T02:15:04;16.13;;;2.47;;
7365;SDS011;3723;52.220;8.792;2024-03-25T02:17:31;15.70;;;2.53;;
7365;SDS011;3723;52.220;8.792;2024-03-25T02:19:57;16.03;;;2.70;;
7365;SDS011;3723;52.220;8.792;2024-03-25T02:22:23;13.70;;;3.10;;
7365;SDS011;3723;52.220;8.792;2024-03-25T02:24:51;12.30;;;2.83;;
7365;SDS011;3723;52.220;8.792;2024-03-25T02:27:19;16.97;;;2.90;;
7365;SDS011;3723;52.220;8.792;2024-03-25T02:29:46;12.37;;;2.63;;
7365;SDS011;3723;52.220;8.792;2024-03-25T02:32:12;11.97;;;1.90;;
7365;SDS011;3723;52.220;8.792;2024-03-25T02:34:39;11.87;;;3.13;;
7365;SDS011;3723;52.220;8.792;2024-03-25T02:37:08;11.43;;;2.43;;
7365;SDS011;3723;52.220;8.792;2024-03-25T02:39:35;17.47;;;2.37;;
7365;SDS011;3723;52.220;8.792;2024-03-25T02:42:02;18.97;;;3.40;;
7365;SDS011;3723;52.220;8.792;2024-03-25T02:44:30;16.67;;;2.80;;
7365;SDS011;3723;52.220;8.792;2024-03-25T02:46:57;18.63;;;3.00;;
7365;SDS011;3723;52.220;8.792;2024-03-25T02:49:24;12.33;;;1.80;;
7365;SDS011;3723;52.220;8.792;2024-03-25T02:51:50;14.17;;;3.40;;
7365;SDS011;3723;52.220;8.792;2024-03-25T02:54:17;14.57;;;2.70;;
7365;SDS011;3723;52.220;8.792;2024-03-25T02:56:44;12.97;;;2.27;;
7365;SDS011;3723;52.220;8.792;2024-03-25T02:59:11;16.13;;;2.10;;
7365;SDS011;3723;52.220;8.792;2024-03-25T03:01:38;15.83;;;2.23;;
7365;SDS011;3723;52.220;8.792;2024-03-25T03:04:05;12.60;;;2.03;;
7365;SDS011;3723;52.220;8.792;2024-03-25T03:06:30;12.20;;;2.30;;
7365;SDS011;3723;52.220;8.792;2024-03-25T03:08:57;17.00;;;2.80;;
7365;SDS011;3723;52.220;8.792;2024-03-25T03:11:23;13.17;;;2.33;;
7365;SDS011;3723;52.220;8.792;2024-03-25T03:13:50;12.77;;;2.70;;
7365;SDS011;3723;52.220;8.792;2024-03-25T03:16:16;14.07;;;2.77;;
7365;SDS011;3723;52.220;8.792;2024-03-25T03:18:44;27.23;;;3.13;;
7365;SDS011;3723;52.220;8.792;2024-03-25T03:21:10;18.30;;;2.67;;
7365;SDS011;3723;52.220;8.792;2024-03-25T03:23:36;20.37;;;3.00;;
7365;SDS011;3723;52.220;8.792;2024-03-25T03:26:02;14.27;;;2.67;;
7365;SDS011;3723;52.220;8.792;2024-03-25T03:28:29;20.20;;;1.90;;
7365;SDS011;3723;52.220;8.792;2024-03-25T03:30:55;12.17;;;3.60;;
7365;SDS011;3723;52.220;8.792;2024-03-25T03:33:22;11.67;;;2.03;;
7365;SDS011;3723;52.220;8.792;2024-03-25T03:35:49;12.77;;;2.10;;
7365;SDS011;3723;52.220;8.792;2024-03-25T03:38:20;11.63;;;1.50;;
7365;SDS011;3723;52.220;8.792;2024-03-25T03:40:55;19.63;;;3.37;;
7365;SDS011;3723;52.220;8.792;2024-03-25T03:43:22;12.47;;;2.07;;
7365;SDS011;3723;52.220;8.792;2024-03-25T03:45:48;13.23;;;2.97;;
7365;SDS011;3723;52.220;8.792;2024-03-25T03:48:15;19.37;;;2.97;;
7365;SDS011;3723;52.220;8.792;2024-03-25T03:50:41;20.37;;;3.03;;
7365;SDS011;3723;52.220;8.792;2024-03-25T03:53:10;20.70;;;2.10;;
7365;SDS011;3723;52.220;8.792;2024-03-25T03:55:36;13.43;;;2.33;;
7365;SDS011;3723;52.220;8.792;2024-03-25T03:58:03;14.07;;;2.87;;
7365;SDS011;3723;52.220;8.792;2024-03-25T04:00:32;13.77;;;2.50;;
7365;SDS011;3723;52.220;8.792;2024-03-25T04:02:59;25.13;;;5.13;;
7365;SDS011;3723;52.220;8.792;2024-03-25T04:05:27;10.73;;;2.00;;
7365;SDS011;3723;52.220;8.792;2024-03-25T04:07:55;9.83;;;2.07;;
7365;SDS011;3723;52.220;8.792;2024-03-25T04:10:23;12.00;;;2.33;;
7365;SDS011;3723;52.220;8.792;2024-03-25T04:12:50;12.33;;;2.07;;
7365;SDS011;3723;52.220;8.792;2024-03-25T04:15:16;19.00;;;1.90;;
7365;SDS011;3723;52.220;8.792;2024-03-25T04:17:44;13.80;;;2.43;;
7365;SDS011;3723;52.220;8.792;2024-03-25T04:20:10;17.30;;;2.33;;
7365;SDS011;3723;52.220;8.792;2024-03-25T04:22:40;13.93;;;2.57;;
7365;SDS011;3723;52.220;8.792;2024-03-25T04:25:07;11.40;;;1.67;;
7365;SDS011;3723;52.220;8.792;2024-03-25T04:27:37;10.77;;;2.00;;
7365;SDS011;3723;52.220;8.792;2024-03-25T04:30:03;9.23;;;1.97;;
7365;SDS011;3723;52.220;8.792;2024-03-25T04:32:32;19.43;;;1.97;;
7365;SDS011;3723;52.220;8.792;2024-03-25T04:34:58;11.13;;;2.20;;
7365;SDS011;3723;52.220;8.792;2024-03-25T04:37:25;12.80;;;2.10;;
7365;SDS011;3723;52.220;8.792;2024-03-25T04:39:51;10.90;;;2.40;;
7365;SDS011;3723;52.220;8.792;2024-03-25T04:42:17;10.13;;;1.63;;
7365;SDS011;3723;52.220;8.792;2024-03-25T04:44:44;13.70;;;2.80;;
7365;SDS011;3723;52.220;8.792;2024-03-25T04:47:10;18.30;;;2.47;;
7365;SDS011;3723;52.220;8.792;2024-03-25T04:49:36;12.90;;;2.13;;
7365;SDS011;3723;52.220;8.792;2024-03-25T04:52:02;14.23;;;1.67;;
7365;SDS011;3723;52.220;8.792;2024-03-25T04:54:28;15.80;;;2.50;;
7365;SDS011;3723;52.220;8.792;2024-03-25T04:56:54;17.57;;;1.80;;
7365;SDS011;3723;52.220;8.792;2024-03-25T04:59:19;14.60;;;2.20;;
7365;SDS011;3723;52.220;8.792;2024-03-25T05:01:47;15.83;;;2.73;;
7365;SDS011;3723;52.220;8.792;2024-03-25T05:04:13;14.30;;;2.60;;
7365;SDS011;3723;52.220;8.792;2024-03-25T05:06:39;15.90;;;3.10;;
7365;SDS011;3723;52.220;8.792;2024-03-25T05:09:05;15.37;;;3.00;;
7365;SDS011;3723;52.220;8.792;2024-03-25T05:11:31;22.20;;;3.33;;
7365;SDS011;3723;52.220;8.792;2024-03-25T05:13:57;11.00;;;2.40;;
7365;SDS011;3723;52.220;8.792;2024-03-25T05:16:23;20.30;;;2.90;;
7365;SDS011;3723;52.220;8.792;2024-03-25T05:18:50;20.07;;;3.00;;
7365;SDS011;3723;52.220;8.792;2024-03-25T05:21:16;17.93;;;2.27;;
7365;SDS011;3723;52.220;8.792;2024-03-25T05:23:42;13.03;;;2.13;;
7365;SDS011;3723;52.220;8.792;2024-03-25T05:26:08;14.07;;;4.67;;
7365;SDS011;3723;52.220;8.792;2024-03-25T05:28:34;8.80;;;1.60;;
7365;SDS011;3723;52.220;8.792;2024-03-25T05:31:04;12.40;;;1.97;;
7365;SDS011;3723;52.220;8.792;2024-03-25T05:33:31;14.10;;;2.40;;
7365;SDS011;3723;52.220;8.792;2024-03-25T05:35:58;17.00;;;2.47;;
7365;SDS011;3723;52.220;8.792;2024-03-25T05:38:24;11.00;;;2.30;;
7365;SDS011;3723;52.220;8.792;2024-03-25T05:40:50;10.97;;;2.50;;
7365;SDS011;3723;52.220;8.792;2024-03-25T05:43:16;19.97;;;2.70;;
7365;SDS011;3723;52.220;8.792;2024-03-25T05:45:49;16.90;;;2.87;;
7365;SDS011;3723;52.220;8.792;2024-03-25T05:48:16;14.63;;;3.20;;
7365;SDS011;3723;52.220;8.792;2024-03-25T05:50:42;21.73;;;5.13;;
7365;SDS011;3723;52.220;8.792;2024-03-25T05:53:09;14.77;;;2.40;;
7365;SDS011;3723;52.220;8.792;2024-03-25T05:55:35;11.80;;;1.80;;
7365;SDS011;3723;52.220;8.792;2024-03-25T05:58:01;9.83;;;2.03;;
7365;SDS011;3723;52.220;8.792;2024-03-25T06:00:28;12.53;;;2.53;;
7365;SDS011;3723;52.220;8.792;2024-03-25T06:02:54;12.03;;;2.33;;
7365;SDS011;3723;52.220;8.792;2024-03-25T06:05:21;22.90;;;2.90;;
7365;SDS011;3723;52.220;8.792;2024-03-25T06:07:46;12.50;;;2.67;;
7365;SDS011;3723;52.220;8.792;2024-03-25T06:10:16;17.73;;;2.80;;
7365;SDS011;3723;52.220;8.792;2024-03-25T06:12:42;17.83;;;2.37;;
7365;SDS011;3723;52.220;8.792;2024-03-25T06:15:08;17.57;;;2.53;;
7365;SDS011;3723;52.220;8.792;2024-03-25T06:17:34;12.70;;;2.73;;
7365;SDS011;3723;52.220;8.792;2024-03-25T06:20:00;14.57;;;2.70;;
7365;SDS011;3723;52.220;8.792;2024-03-25T06:22:26;15.63;;;3.30;;
7365;SDS011;3723;52.220;8.792;2024-03-25T06:24:52;14.43;;;2.10;;
7365;SDS011;3723;52.220;8.792;2024-03-25T06:27:19;18.77;;;2.53;;
7365;SDS011;3723;52.220;8.792;2024-03-25T06:29:45;11.70;;;1.67;;
7365;SDS011;3723;52.220;8.792;2024-03-25T06:32:11;12.27;;;1.83;;
7365;SDS011;3723;52.220;8.792;2024-03-25T06:34:56;10.60;;;1.90;;
7365;SDS011;3723;52.220;8.792;2024-03-25T06:37:22;22.60;;;2.40;;
7365;SDS011;3723;52.220;8.792;2024-03-25T06:39:48;20.47;;;3.10;;
7365;SDS011;3723;52.220;8.792;2024-03-25T06:42:14;20.77;;;2.87;;
7365;SDS011;3723;52.220;8.792;2024-03-25T06:44:43;8.80;;;1.60;;
7365;SDS011;3723;52.220;8.792;2024-03-25T06:47:09;11.93;;;1.97;;
7365;SDS011;3723;52.220;8.792;2024-03-25T06:49:35;13.13;;;2.00;;
7365;SDS011;3723;52.220;8.792;2024-03-25T06:52:00;13.67;;;2.47;;
7365;SDS011;3723;52.220;8.792;2024-03-25T06:54:27;10.37;;;2.23;;
7365;SDS011;3723;52.220;8.792;2024-03-25T06:56:55;17.93;;;2.40;;
7365;SDS011;3723;52.220;8.792;2024-03-25T06:59:21;14.33;;;2.13;;
7365;SDS011;3723;52.220;8.792;2024-03-25T07:01:48;15.00;;;2.50;;
7365;SDS011;3723;52.220;8.792;2024-03-25T07:04:14;12.47;;;2.33;;
7365;SDS011;3723;52.220;8.792;2024-03-25T07:06:40;18.23;;;2.07;;
7365;SDS011;3723;52.220;8.792;2024-03-25T07:09:06;18.03;;;2.63;;
7365;SDS011;3723;52.220;8.792;2024-03-25T07:11:32;17.43;;;2.10;;
7365;SDS011;3723;52.220;8.792;2024-03-25T07:13:58;7.73;;;1.60;;
7365;SDS011;3723;52.220;8.792;2024-03-25T07:16:23;14.10;;;2.17;;
7365;SDS011;3723;52.220;8.792;2024-03-25T07:18:51;11.70;;;3.40;;
7365;SDS011;3723;52.220;8.792;2024-03-25T07:21:17;11.80;;;1.50;;
7365;SDS011;3723;52.220;8.792;2024-03-25T07:23:43;12.90;;;2.57;;
7365;SDS011;3723;52.220;8.792;2024-03-25T07:26:09;12.90;;;2.17;;
7365;SDS011;3723;52.220;8.792;2024-03-25T07:28:35;12.00;;;1.87;;
7365;SDS011;3723;52.220;8.792;2024-03-25T07:31:01;18.97;;;1.57;;
7365;SDS011;3723;52.220;8.792;2024-03-25T07:33:27;16.57;;;2.23;;
7365;SDS011;3723;52.220;8.792;2024-03-25T07:35:54;10.07;;;1.63;;
7365;SDS011;3723;52.220;8.792;2024-03-25T07:38:20;15.13;;;2.57;;
7365;SDS011;3723;52.220;8.792;2024-03-25T07:40:46;13.63;;;2.20;;
7365;SDS011;3723;52.220;8.792;2024-03-25T07:43:12;11.90;;;1.73;;
7365;SDS011;3723;52.220;8.792;2024-03-25T07:45:38;10.60;;;1.80;;
7365;SDS011;3723;52.220;8.792;2024-03-25T07:48:04;11.50;;;1.80;;
7365;SDS011;3723;52.220;8.792;2024-03-25T07:50:30;13.93;;;1.97;;
7365;SDS011;3723;52.220;8.792;2024-03-25T07:52:57;11.30;;;1.50;;
7365;SDS011;3723;52.220;8.792;2024-03-25T07:55:23;12.80;;;2.33;;
7365;SDS011;3723;52.220;8.792;2024-03-25T07:57:49;14.13;;;2.50;;
7365;SDS011;3723;52.220;8.792;2024-03-25T08:00:15;19.13;;;2.10;;
7365;SDS011;3723;52.220;8.792;2024-03-25T08:02:43;10.60;;;2.37;;
7365;SDS011;3723;52.220;8.792;2024-03-25T08:05:09;10.20;;;2.03;;
7365;SDS011;3723;52.220;8.792;2024-03-25T08:07:35;13.47;;;1.80;;
7365;SDS011;3723;52.220;8.792;2024-03-25T08:10:02;8.90;;;1.33;;
7365;SDS011;3723;52.220;8.792;2024-03-25T08:12:29;13.90;;;2.07;;
7365;SDS011;3723;52.220;8.792;2024-03-25T08:14:55;18.27;;;2.23;;
7365;SDS011;3723;52.220;8.792;2024-03-25T08:17:21;15.03;;;2.07;;
7365;SDS011;3723;52.220;8.792;2024-03-25T08:19:47;22.00;;;2.53;;
7365;SDS011;3723;52.220;8.792;2024-03-25T08:22:13;15.47;;;2.10;;
7365;SDS011;3723;52.220;8.792;2024-03-25T08:24:39;17.93;;;2.70;;
7365;SDS011;3723;52.220;8.792;2024-03-25T08:27:06;17.10;;;2.43;;
7365;SDS011;3723;52.220;8.792;2024-03-25T08:29:32;11.33;;;1.30;;
7365;SDS011;3723;52.220;8.792;2024-03-25T08:31:58;14.97;;;3.00;;
7365;SDS011;3723;52.220;8.792;2024-03-25T08:34:24;16.27;;;2.67;;
7365;SDS011;3723;52.220;8.792;2024-03-25T08:36:50;13.20;;;1.60;;
7365;SDS011;3723;52.220;8.792;2024-03-25T08:39:16;10.53;;;1.57;;
7365;SDS011;3723;52.220;8.792;2024-03-25T08:41:42;10.90;;;2.07;;
7365;SDS011;3723;52.220;8.792;2024-03-25T08:44:09;13.40;;;1.33;;
7365;SDS011;3723;52.220;8.792;2024-03-25T08:46:35;16.10;;;1.93;;
7365;SDS011;3723;52.220;8.792;2024-03-25T08:49:01;9.87;;;1.63;;
7365;SDS011;3723;52.220;8.792;2024-03-25T08:51:27;13.63;;;1.97;;
7365;SDS011;3723;52.220;8.792;2024-03-25T08:53:53;17.33;;;1.87;;
7365;SDS011;3723;52.220;8.792;2024-03-25T08:56:19;11.40;;;1.70;;
7365;SDS011;3723;52.220;8.792;2024-03-25T08:58:45;10.13;;;1.40;;
7365;SDS011;3723;52.220;8.792;2024-03-25T09:01:12;14.53;;;1.80;;
7365;SDS011;3723;52.220;8.792;2024-03-25T09:03:38;14.90;;;1.30;;
7365;SDS011;3723;52.220;8.792;2024-03-25T09:06:04;11.40;;;1.87;;
7365;SDS011;3723;52.220;8.792;2024-03-25T09:08:30;10.00;;;1.63;;
7365;SDS011;3723;52.220;8.792;2024-03-25T09:10:57;12.33;;;1.40;;
7365;SDS011;3723;52.220;8.792;2024-03-25T09:13:29;10.33;;;1.57;;
7365;SDS011;3723;52.220;8.792;2024-03-25T09:15:55;12.90;;;1.53;;
7365;SDS011;3723;52.220;8.792;2024-03-25T09:18:22;11.73;;;1.10;;
7365;SDS011;3723;52.220;8.792;2024-03-25T09:20:48;11.33;;;1.67;;
7365;SDS011;3723;52.220;8.792;2024-03-25T09:23:21;10.33;;;1.60;;
7365;SDS011;3723;52.220;8.792;2024-03-25T09:25:51;12.43;;;1.27;;
7365;SDS011;3723;52.220;8.792;2024-03-25T09:28:17;15.70;;;1.30;;
7365;SDS011;3723;52.220;8.792;2024-03-25T09:30:43;11.80;;;2.00;;
7365;SDS011;3723;52.220;8.792;2024-03-25T09:33:22;10.53;;;2.17;;
7365;SDS011;3723;52.220;8.792;2024-03-25T09:35:48;11.23;;;1.40;;
7365;SDS011;3723;52.220;8.792;2024-03-25T09:38:13;14.43;;;1.33;;
7365;SDS011;3723;52.220;8.792;2024-03-25T09:40:40;11.40;;;1.20;;
7365;SDS011;3723;52.220;8.792;2024-03-25T09:43:06;9.90;;;1.00;;
7365;SDS011;3723;52.220;8.792;2024-03-25T09:45:38;14.63;;;1.30;;
7365;SDS011;3723;52.220;8.792;2024-03-25T09:48:11;9.73;;;1.10;;
7365;SDS011;3723;52.220;8.792;2024-03-25T09:50:39;7.40;;;0.80;;
7365;SDS011;3723;52.220;8.792;2024-03-25T09:53:06;9.63;;;0.90;;
7365;SDS011;3723;52.220;8.792;2024-03-25T09:55:32;8.70;;;1.03;;
7365;SDS011;3723;52.220;8.792;2024-03-25T09:57:58;17.43;;;1.43;;
7365;SDS011;3723;52.220;8.792;2024-03-25T10:00:24;12.00;;;1.10;;
7365;SDS011;3723;52.220;8.792;2024-03-25T10:02:51;8.80;;;1.47;;
7365;SDS011;3723;52.220;8.792;2024-03-25T10:05:17;10.60;;;1.30;;
7365;SDS011;3723;52.220;8.792;2024-03-25T10:07:45;10.67;;;1.23;;
7365;SDS011;3723;52.220;8.792;2024-03-25T10:10:11;8.70;;;1.10;;
7365;SDS011;3723;52.220;8.792;2024-03-25T10:12:54;8.77;;;1.27;;
7365;SDS011;3723;52.220;8.792;2024-03-25T10:15:20;8.50;;;1.30;;
7365;SDS011;3723;52.220;8.792;2024-03-25T10:17:52;11.90;;;1.67;;
7365;SDS011;3723;52.220;8.792;2024-03-25T10:20:18;11.30;;;1.00;;
7365;SDS011;3723;52.220;8.792;2024-03-25T10:22:46;8.10;;;1.10;;
7365;SDS011;3723;52.220;8.792;2024-03-25T10:25:30;9.53;;;1.67;;
7365;SDS011;3723;52.220;8.792;2024-03-25T10:27:56;11.83;;;1.30;;
7365;SDS011;3723;52.220;8.792;2024-03-25T10:30:23;9.50;;;1.70;;
7365;SDS011;3723;52.220;8.792;2024-03-25T10:32:58;12.30;;;1.30;;
7365;SDS011;3723;52.220;8.792;2024-03-25T10:35:31;13.50;;;1.30;;
7365;SDS011;3723;52.220;8.792;2024-03-25T10:38:00;12.60;;;1.17;;
7365;SDS011;3723;52.220;8.792;2024-03-25T10:40:27;7.90;;;1.10;;
7365;SDS011;3723;52.220;8.792;2024-03-25T10:42:58;10.33;;;1.10;;
7365;SDS011;3723;52.220;8.792;2024-03-25T10:45:28;12.53;;;1.67;;
7365;SDS011;3723;52.220;8.792;2024-03-25T10:47:55;9.53;;;2.00;;
7365;SDS011;3723;52.220;8.792;2024-03-25T10:50:24;11.70;;;1.20;;
7365;SDS011;3723;52.220;8.792;2024-03-25T10:52:53;9.40;;;1.30;;
7365;SDS011;3723;52.220;8.792;2024-03-25T10:55:21;15.00;;;1.33;;
7365;SDS011;3723;52.220;8.792;2024-03-25T10:57:48;10.90;;;1.43;;
7365;SDS011;3723;52.220;8.792;2024-03-25T11:00:17;8.23;;;1.17;;
7365;SDS011;3723;52.220;8.792;2024-03-25T11:02:43;8.03;;;1.17;;
7365;SDS011;3723;52.220;8.792;2024-03-25T11:05:10;9.63;;;1.00;;
7365;SDS011;3723;52.220;8.792;2024-03-25T11:07:37;11.40;;;1.27;;
7365;SDS011;3723;52.220;8.792;2024-03-25T11:10:06;7.63;;;0.97;;
7365;SDS011;3723;52.220;8.792;2024-03-25T11:12:35;10.67;;;1.10;;
7365;SDS011;3723;52.220;8.792;2024-03-25T11:15:08;9.43;;;1.10;;
7365;SDS011;3723;52.220;8.792;2024-03-25T11:17:34;8.40;;;1.10;;
7365;SDS011;3723;52.220;8.792;2024-03-25T11:20:08;8.13;;;0.90;;
7365;SDS011;3723;52.220;8.792;2024-03-25T11:22:35;9.27;;;0.80;;
7365;SDS011;3723;52.220;8.792;2024-03-25T11:25:05;11.00;;;1.00;;
7365;SDS011;3723;52.220;8.792;2024-03-25T11:27:32;9.47;;;1.67;;
7365;SDS011;3723;52.220;8.792;2024-03-25T11:30:04;13.00;;;1.20;;
7365;SDS011;3723;52.220;8.792;2024-03-25T11:32:40;14.30;;;1.10;;
7365;SDS011;3723;52.220;8.792;2024-03-25T11:35:09;11.80;;;1.30;;
7365;SDS011;3723;52.220;8.792;2024-03-25T11:37:38;12.80;;;1.10;;
7365;SDS011;3723;52.220;8.792;2024-03-25T11:40:05;7.53;;;0.93;;
7365;SDS011;3723;52.220;8.792;2024-03-25T11:42:32;7.60;;;0.90;;
7365;SDS011;3723;52.220;8.792;2024-03-25T11:44:59;8.60;;;1.00;;
7365;SDS011;3723;52.220;8.792;2024-03-25T11:47:27;12.27;;;1.33;;
7365;SDS011;3723;52.220;8.792;2024-03-25T11:49:53;9.83;;;1.30;;
7365;SDS011;3723;52.220;8.792;2024-03-25T11:52:19;13.20;;;1.17;;
7365;SDS011;3723;52.220;8.792;2024-03-25T11:54:54;10.67;;;1.33;;
7365;SDS011;3723;52.220;8.792;2024-03-25T11:57:20;9.10;;;1.30;;
7365;SDS011;3723;52.220;8.792;2024-03-25T11:59:47;10.30;;;1.40;;
7365;SDS011;3723;52.220;8.792;2024-03-25T12:02:13;11.20;;;1.10;;
7365;SDS011;3723;52.220;8.792;2024-03-25T12:04:43;7.13;;;1.00;;
7365;SDS011;3723;52.220;8.792;2024-03-25T12:07:12;6.73;;;0.80;;
7365;SDS011;3723;52.220;8.792;2024-03-25T12:09:39;8.40;;;1.40;;
7365;SDS011;3723;52.220;8.792;2024-03-25T12:12:23;7.67;;;1.00;;
7365;SDS011;3723;52.220;8.792;2024-03-25T12:14:50;9.77;;;1.00;;
7365;SDS011;3723;52.220;8.792;2024-03-25T12:17:16;8.40;;;1.00;;
7365;SDS011;3723;52.220;8.792;2024-03-25T12:19:44;9.93;;;0.93;;
7365;SDS011;3723;52.220;8.792;2024-03-25T12:22:10;6.50;;;0.70;;
7365;SDS011;3723;52.220;8.792;2024-03-25T12:24:39;8.13;;;0.80;;
7365;SDS011;3723;52.220;8.792;2024-03-25T12:27:05;7.70;;;1.00;;
7365;SDS011;3723;52.220;8.792;2024-03-25T12:29:31;8.40;;;1.00;;
7365;SDS011;3723;52.220;8.792;2024-03-25T12:32:00;7.03;;;0.70;;
7365;SDS011;3723;52.220;8.792;2024-03-25T12:34:36;8.60;;;0.80;;
7365;SDS011;3723;52.220;8.792;2024-03-25T12:37:03;13.53;;;1.20;;
7365;SDS011;3723;52.220;8.792;2024-03-25T12:39:29;10.47;;;1.40;;
7365;SDS011;3723;52.220;8.792;2024-03-25T12:41:55;8.93;;;1.10;;
7365;SDS011;3723;52.220;8.792;2024-03-25T12:44:37;10.30;;;1.07;;
7365;SDS011;3723;52.220;8.792;2024-03-25T12:47:13;9.90;;;1.07;;
7365;SDS011;3723;52.220;8.792;2024-03-25T12:49:39;9.03;;;1.00;;
7365;SDS011;3723;52.220;8.792;2024-03-25T12:52:07;7.93;;;0.80;;
7365;SDS011;3723;52.220;8.792;2024-03-25T12:54:34;8.80;;;0.83;;
7365;SDS011;3723;52.220;8.792;2024-03-25T12:57:00;7.10;;;0.90;;
7365;SDS011;3723;52.220;8.792;2024-03-25T12:59:26;7.50;;;0.97;;
7365;SDS011;3723;52.220;8.792;2024-03-25T13:01:54;7.20;;;0.80;;
7365;SDS011;3723;52.220;8.792;2024-03-25T13:04:21;7.30;;;0.90;;
7365;SDS011;3723;52.220;8.792;2024-03-25T13:06:47;9.70;;;0.80;;
7365;SDS011;3723;52.220;8.792;2024-03-25T13:09:16;8.30;;;1.30;;
7365;SDS011;3723;52.220;8.792;2024-03-25T13:11:42;8.33;;;0.90;;
7365;SDS011;3723;52.220;8.792;2024-03-25T13:14:11;8.97;;;1.07;;
7365;SDS011;3723;52.220;8.792;2024-03-25T13:16:37;10.43;;;1.00;;
7365;SDS011;3723;52.220;8.792;2024-03-25T13:19:03;9.67;;;1.10;;
7365;SDS011;3723;52.220;8.792;2024-03-25T13:21:30;10.57;;;0.93;;
7365;SDS011;3723;52.220;8.792;2024-03-25T13:24:00;8.03;;;0.80;;
7365;SDS011;3723;52.220;8.792;2024-03-25T13:26:28;10.60;;;1.00;;
7365;SDS011;3723;52.220;8.792;2024-03-25T13:28:55;11.67;;;1.00;;
7365;SDS011;3723;52.220;8.792;2024-03-25T13:31:23;7.30;;;0.70;;
7365;SDS011;3723;52.220;8.792;2024-03-25T13:33:49;7.33;;;0.70;;
7365;SDS011;3723;52.220;8.792;2024-03-25T13:36:15;8.30;;;0.80;;
7365;SDS011;3723;52.220;8.792;2024-03-25T13:38:41;9.80;;;0.83;;
7365;SDS011;3723;52.220;8.792;2024-03-25T13:41:07;10.17;;;1.10;;
7365;SDS011;3723;52.220;8.792;2024-03-25T13:43:34;7.00;;;0.80;;
7365;SDS011;3723;52.220;8.792;2024-03-25T13:46:00;8.80;;;1.03;;
7365;SDS011;3723;52.220;8.792;2024-03-25T13:48:26;14.23;;;1.00;;
7365;SDS011;3723;52.220;8.792;2024-03-25T13:50:53;7.03;;;0.80;;
7365;SDS011;3723;52.220;8.792;2024-03-25T13:53:19;10.30;;;0.93;;
7365;SDS011;3723;52.220;8.792;2024-03-25T13:55:45;10.23;;;1.10;;
7365;SDS011;3723;52.220;8.792;2024-03-25T13:58:11;8.53;;;0.80;;
7365;SDS011;3723;52.220;8.792;2024-03-25T14:00:38;10.40;;;1.00;;
7365;SDS011;3723;52.220;8.792;2024-03-25T14:03:05;8.93;;;0.80;;
7365;SDS011;3723;52.220;8.792;2024-03-25T14:05:31;8.80;;;0.83;;
7365;SDS011;3723;52.220;8.792;2024-03-25T14:07:59;8.70;;;1.10;;
7365;SDS011;3723;52.220;8.792;2024-03-25T14:10:37;7.93;;;0.70;;
7365;SDS011;3723;52.220;8.792;2024-03-25T14:13:03;10.63;;;1.07;;
7365;SDS011;3723;52.220;8.792;2024-03-25T14:15:30;7.17;;;0.80;;
7365;SDS011;3723;52.220;8.792;2024-03-25T14:17:57;8.80;;;0.90;;
7365;SDS011;3723;52.220;8.792;2024-03-25T14:20:23;8.60;;;1.00;;
7365;SDS011;3723;52.220;8.792;2024-03-25T14:22:49;10.37;;;1.00;;
7365;SDS011;3723;52.220;8.792;2024-03-25T14:25:15;9.07;;;1.00;;
7365;SDS011;3723;52.220;8.792;2024-03-25T14:27:41;9.53;;;1.10;;
7365;SDS011;3723;52.220;8.792;2024-03-25T14:30:07;7.40;;;0.80;;
7365;SDS011;3723;52.220;8.792;2024-03-25T14:32:34;8.43;;;0.73;;
7365;SDS011;3723;52.220;8.792;2024-03-25T14:35:06;9.60;;;0.90;;
7365;SDS011;3723;52.220;8.792;2024-03-25T14:37:32;7.50;;;0.80;;
7365;SDS011;3723;52.220;8.792;2024-03-25T14:39:58;8.47;;;0.90;;
7365;SDS011;3723;52.220;8.792;2024-03-25T14:42:24;8.03;;;0.90;;
7365;SDS011;3723;52.220;8.792;2024-03-25T14:44:50;8.40;;;0.70;;
7365;SDS011;3723;52.220;8.792;2024-03-25T14:47:16;7.17;;;1.00;;
7365;SDS011;3723;52.220;8.792;2024-03-25T14:49:42;10.57;;;1.30;;
7365;SDS011;3723;52.220;8.792;2024-03-25T14:52:09;8.20;;;0.87;;
7365;SDS011;3723;52.220;8.792;2024-03-25T14:54:37;8.20;;;0.80;;
7365;SDS011;3723;52.220;8.792;2024-03-25T14:57:03;8.03;;;0.90;;
7365;SDS011;3723;52.220;8.792;2024-03-25T14:59:29;8.73;;;0.87;;
7365;SDS011;3723;52.220;8.792;2024-03-25T15:01:58;7.50;;;0.93;;
7365;SDS011;3723;52.220;8.792;2024-03-25T15:04:28;12.00;;;1.60;;